sensor_id;sensor_type;location;lat;lon;timestamp;pressure;altitude;pressure_sealevel;temperature
15845;BMP180;50807;52.436;13.346;2023-04-24T00:00:09;99862.00;;;16.60
15845;BMP180;50807;52.436;13.346;2023-04-24T00:00:40;99863.00;;;16.60
15845;BMP180;50807;52.436;13.346;2023-04-24T00:01:12;99857.00;;;16.60
15845;BMP180;50807;52.436;13.346;2023-04-24T00:01:43;99858.00;;;16.60
15845;BMP180;50807;52.436;13.346;2023-04-24T00:02:14;99857.00;;;16.60
15845;BMP180;50807;52.436;13.346;2023-04-24T00:02:46;99861.00;;;16.60
15845;BMP180;50807;52.436;13.346;2023-04-24T00:03:17;99863.00;;;16.60
15845;BMP180;50807;52.436;13.346;2023-04-24T00:03:51;99870.00;;;16.60
15845;BMP180;50807;52.436;13.346;2023-04-24T00:04:23;99860.00;;;16.60
15845;BMP180;50807;52.436;13.346;2023-04-24T00:04:56;99854.00;;;16.60
15845;BMP180;50807;52.436;13.346;2023-04-24T00:05:27;99851.00;;;16.60
15845;BMP180;50807;52.436;13.346;2023-04-24T00:05:58;99852.00;;;16.60
15845;BMP180;50807;52.436;13.346;2023-04-24T00:06:29;99848.00;;;16.60
15845;BMP180;50807;52.436;13.346;2023-04-24T00:07:03;99852.00;;;16.60
15845;BMP180;50807;52.436;13.346;2023-04-24T00:07:37;99852.00;;;16.60
15845;BMP180;50807;52.436;13.346;2023-04-24T00:08:07;99857.00;;;16.60
15845;BMP180;50807;52.436;13.346;2023-04-24T00:08:38;99855.00;;;16.60
15845;BMP180;50807;52.436;13.346;2023-04-24T00:09:09;99856.00;;;16.60
15845;BMP180;50807;52.436;13.346;2023-04-24T00:09:41;99850.00;;;16.60
15845;BMP180;50807;52.436;13.346;2023-04-24T00:10:12;99848.00;;;16.60
15845;BMP180;50807;52.436;13.346;2023-04-24T00:10:43;99853.00;;;16.60
15845;BMP180;50807;52.436;13.346;2023-04-24T00:11:15;99851.00;;;16.60
15845;BMP180;50807;52.436;13.346;2023-04-24T00:11:45;99852.00;;;16.60
15845;BMP180;50807;52.436;13.346;2023-04-24T00:12:16;99849.00;;;16.60
15845;BMP180;50807;52.436;13.346;2023-04-24T00:12:48;99848.00;;;16.60
15845;BMP180;50807;52.436;13.346;2023-04-24T00:13:19;99848.00;;;16.50
15845;BMP180;50807;52.436;13.346;2023-04-24T00:13:50;99847.00;;;16.50
15845;BMP180;50807;52.436;13.346;2023-04-24T00:14:21;99847.00;;;16.50
15845;BMP180;50807;52.436;13.346;2023-04-24T00:14:53;99841.00;;;16.50
15845;BMP180;50807;52.436;13.346;2023-04-24T00:15:24;99843.00;;;16.50
15845;BMP180;50807;52.436;13.346;2023-04-24T00:15:55;99840.00;;;16.50
15845;BMP180;50807;52.436;13.346;2023-04-24T00:16:27;99840.00;;;16.50
15845;BMP180;50807;52.436;13.346;2023-04-24T00:16:58;99838.00;;;16.60
15845;BMP180;50807;52.436;13.346;2023-04-24T00:17:29;99839.00;;;16.50
15845;BMP180;50807;52.436;13.346;2023-04-24T00:18:01;99837.00;;;16.50
15845;BMP180;50807;52.436;13.346;2023-04-24T00:18:31;99846.00;;;16.50
15845;BMP180;50807;52.436;13.346;2023-04-24T00:19:02;99838.00;;;16.50
15845;BMP180;50807;52.436;13.346;2023-04-24T00:19:36;99835.00;;;16.50
15845;BMP180;50807;52.436;13.346;2023-04-24T00:20:08;99844.00;;;16.50
15845;BMP180;50807;52.436;13.346;2023-04-24T00:20:40;99843.00;;;16.50
15845;BMP180;50807;52.436;13.346;2023-04-24T00:21:11;99840.00;;;16.50
15845;BMP180;50807;52.436;13.346;2023-04-24T00:21:43;99830.00;;;16.50
15845;BMP180;50807;52.436;13.346;2023-04-24T00:22:14;99831.00;;;16.50
15845;BMP180;50807;52.436;13.346;2023-04-24T00:22:45;99829.00;;;16.50
15845;BMP180;50807;52.436;13.346;2023-04-24T00:23:16;99826.00;;;16.50
15845;BMP180;50807;52.436;13.346;2023-04-24T00:23:47;99836.00;;;16.50
15845;BMP180;50807;52.436;13.346;2023-04-24T00:24:18;99831.00;;;16.50
15845;BMP180;50807;52.436;13.346;2023-04-24T00:24:50;99831.00;;;16.50
15845;BMP180;50807;52.436;13.346;2023-04-24T00:25:20;99831.00;;;16.50
15845;BMP180;50807;52.436;13.346;2023-04-24T00:25:51;99824.00;;;16.50
15845;BMP180;50807;52.436;13.346;2023-04-24T00:26:23;99832.00;;;16.50
15845;BMP180;50807;52.436;13.346;2023-04-24T00:26:53;99831.00;;;16.50
15845;BMP180;50807;52.436;13.346;2023-04-24T00:27:24;99830.00;;;16.50
15845;BMP180;50807;52.436;13.346;2023-04-24T00:27:55;99830.00;;;16.50
15845;BMP180;50807;52.436;13.346;2023-04-24T00:28:27;99826.00;;;16.50
15845;BMP180;50807;52.436;13.346;2023-04-24T00:28:58;99825.00;;;16.50
15845;BMP180;50807;52.436;13.346;2023-04-24T00:29:28;99826.00;;;16.50
15845;BMP180;50807;52.436;13.346;2023-04-24T00:30:02;99825.00;;;16.40
15845;BMP180;50807;52.436;13.346;2023-04-24T00:30:33;99825.00;;;16.40
15845;BMP180;50807;52.436;13.346;2023-04-24T00:31:04;99821.00;;;16.40
15845;BMP180;50807;52.436;13.346;2023-04-24T00:31:36;99821.00;;;16.40
15845;BMP180;50807;52.436;13.346;2023-04-24T00:32:06;99818.00;;;16.40
15845;BMP180;50807;52.436;13.346;2023-04-24T00:32:37;99826.00;;;16.40
15845;BMP180;50807;52.436;13.346;2023-04-24T00:33:09;99819.00;;;16.40
15845;BMP180;50807;52.436;13.346;2023-04-24T00:33:40;99820.00;;;16.40
15845;BMP180;50807;52.436;13.346;2023-04-24T00:34:10;99810.00;;;16.40
15845;BMP180;50807;52.436;13.346;2023-04-24T00:34:43;99821.00;;;16.40
15845;BMP180;50807;52.436;13.346;2023-04-24T00:35:14;99817.00;;;16.40
15845;BMP180;50807;52.436;13.346;2023-04-24T00:35:45;99805.00;;;16.40
15845;BMP180;50807;52.436;13.346;2023-04-24T00:36:16;99812.00;;;16.40
15845;BMP180;50807;52.436;13.346;2023-04-24T00:36:49;99810.00;;;16.40
15845;BMP180;50807;52.436;13.346;2023-04-24T00:37:22;99803.00;;;16.40
15845;BMP180;50807;52.436;13.346;2023-04-24T00:37:54;99809.00;;;16.40
15845;BMP180;50807;52.436;13.346;2023-04-24T00:38:25;99796.00;;;16.40
15845;BMP180;50807;52.436;13.346;2023-04-24T00:38:56;99804.00;;;16.40
15845;BMP180;50807;52.436;13.346;2023-04-24T00:39:27;99810.00;;;16.40
15845;BMP180;50807;52.436;13.346;2023-04-24T00:39:58;99796.00;;;16.40
15845;BMP180;50807;52.436;13.346;2023-04-24T00:40:29;99795.00;;;16.30
15845;BMP180;50807;52.436;13.346;2023-04-24T00:41:01;99797.00;;;16.30
15845;BMP180;50807;52.436;13.346;2023-04-24T00:41:32;99794.00;;;16.30
15845;BMP180;50807;52.436;13.346;2023-04-24T00:42:03;99797.00;;;16.30
15845;BMP180;50807;52.436;13.346;2023-04-24T00:42:36;99799.00;;;16.30
15845;BMP180;50807;52.436;13.346;2023-04-24T00:43:07;99795.00;;;16.30
15845;BMP180;50807;52.436;13.346;2023-04-24T00:43:39;99800.00;;;16.30
15845;BMP180;50807;52.436;13.346;2023-04-24T00:44:11;99793.00;;;16.30
15845;BMP180;50807;52.436;13.346;2023-04-24T00:44:41;99793.00;;;16.30
15845;BMP180;50807;52.436;13.346;2023-04-24T00:45:14;99798.00;;;16.30
15845;BMP180;50807;52.436;13.346;2023-04-24T00:45:46;99796.00;;;16.30
15845;BMP180;50807;52.436;13.346;2023-04-24T00:46:17;99792.00;;;16.30
15845;BMP180;50807;52.436;13.346;2023-04-24T00:46:49;99793.00;;;16.30
15845;BMP180;50807;52.436;13.346;2023-04-24T00:47:22;99798.00;;;16.20
15845;BMP180;50807;52.436;13.346;2023-04-24T00:47:54;99787.00;;;16.20
15845;BMP180;50807;52.436;13.346;2023-04-24T00:48:25;99791.00;;;16.20
15845;BMP180;50807;52.436;13.346;2023-04-24T00:48:59;99795.00;;;16.20
15845;BMP180;50807;52.436;13.346;2023-04-24T00:49:30;99793.00;;;16.20
15845;BMP180;50807;52.436;13.346;2023-04-24T00:50:02;99789.00;;;16.20
15845;BMP180;50807;52.436;13.346;2023-04-24T00:50:35;99787.00;;;16.20
15845;BMP180;50807;52.436;13.346;2023-04-24T00:51:07;99794.00;;;16.20
15845;BMP180;50807;52.436;13.346;2023-04-24T00:51:38;99792.00;;;16.20
15845;BMP180;50807;52.436;13.346;2023-04-24T00:52:09;99790.00;;;16.20
15845;BMP180;50807;52.436;13.346;2023-04-24T00:52:41;99789.00;;;16.20
15845;BMP180;50807;52.436;13.346;2023-04-24T00:53:12;99782.00;;;16.10
15845;BMP180;50807;52.436;13.346;2023-04-24T00:53:42;99789.00;;;16.10
15845;BMP180;50807;52.436;13.346;2023-04-24T00:54:14;99792.00;;;16.10
15845;BMP180;50807;52.436;13.346;2023-04-24T00:54:45;99786.00;;;16.10
15845;BMP180;50807;52.436;13.346;2023-04-24T00:55:16;99786.00;;;16.10
15845;BMP180;50807;52.436;13.346;2023-04-24T00:55:48;99788.00;;;16.10
15845;BMP180;50807;52.436;13.346;2023-04-24T00:56:19;99783.00;;;16.10
15845;BMP180;50807;52.436;13.346;2023-04-24T00:56:50;99787.00;;;16.10
15845;BMP180;50807;52.436;13.346;2023-04-24T00:57:22;99792.00;;;16.10
15845;BMP180;50807;52.436;13.346;2023-04-24T00:57:54;99787.00;;;16.10
15845;BMP180;50807;52.436;13.346;2023-04-24T00:58:25;99791.00;;;16.10
15845;BMP180;50807;52.436;13.346;2023-04-24T00:58:58;99787.00;;;16.10
15845;BMP180;50807;52.436;13.346;2023-04-24T00:59:29;99791.00;;;16.10
15845;BMP180;50807;52.436;13.346;2023-04-24T01:00:00;99794.00;;;16.10
15845;BMP180;50807;52.436;13.346;2023-04-24T01:00:35;99788.00;;;16.10
15845;BMP180;50807;52.436;13.346;2023-04-24T01:01:06;99795.00;;;16.10
15845;BMP180;50807;52.436;13.346;2023-04-24T01:01:38;99793.00;;;16.10
15845;BMP180;50807;52.436;13.346;2023-04-24T01:02:13;99794.00;;;16.10
15845;BMP180;50807;52.436;13.346;2023-04-24T01:02:44;99794.00;;;16.10
15845;BMP180;50807;52.436;13.346;2023-04-24T01:03:16;99792.00;;;16.10
15845;BMP180;50807;52.436;13.346;2023-04-24T01:03:51;99787.00;;;16.10
15845;BMP180;50807;52.436;13.346;2023-04-24T01:04:22;99796.00;;;16.10
15845;BMP180;50807;52.436;13.346;2023-04-24T01:04:53;99800.00;;;16.10
15845;BMP180;50807;52.436;13.346;2023-04-24T01:05:24;99796.00;;;16.10
15845;BMP180;50807;52.436;13.346;2023-04-24T01:05:56;99794.00;;;16.10
15845;BMP180;50807;52.436;13.346;2023-04-24T01:06:29;99797.00;;;16.10
15845;BMP180;50807;52.436;13.346;2023-04-24T01:07:01;99797.00;;;16.10
15845;BMP180;50807;52.436;13.346;2023-04-24T01:07:34;99798.00;;;16.10
15845;BMP180;50807;52.436;13.346;2023-04-24T01:08:05;99798.00;;;16.10
15845;BMP180;50807;52.436;13.346;2023-04-24T01:08:38;99799.00;;;16.10
15845;BMP180;50807;52.436;13.346;2023-04-24T01:09:11;99789.00;;;16.10
15845;BMP180;50807;52.436;13.346;2023-04-24T01:09:45;99786.00;;;16.10
15845;BMP180;50807;52.436;13.346;2023-04-24T01:10:18;99793.00;;;16.10
15845;BMP180;50807;52.436;13.346;2023-04-24T01:10:52;99784.00;;;16.10
15845;BMP180;50807;52.436;13.346;2023-04-24T01:11:24;99797.00;;;16.10
15845;BMP180;50807;52.436;13.346;2023-04-24T01:11:55;99792.00;;;16.10
15845;BMP180;50807;52.436;13.346;2023-04-24T01:12:27;99797.00;;;16.10
15845;BMP180;50807;52.436;13.346;2023-04-24T01:12:58;99790.00;;;16.10
15845;BMP180;50807;52.436;13.346;2023-04-24T01:13:30;99801.00;;;16.10
15845;BMP180;50807;52.436;13.346;2023-04-24T01:14:03;99796.00;;;16.10
15845;BMP180;50807;52.436;13.346;2023-04-24T01:14:34;99787.00;;;16.10
15845;BMP180;50807;52.436;13.346;2023-04-24T01:15:06;99795.00;;;16.10
15845;BMP180;50807;52.436;13.346;2023-04-24T01:15:39;99790.00;;;16.10
15845;BMP180;50807;52.436;13.346;2023-04-24T01:16:10;99790.00;;;16.10
15845;BMP180;50807;52.436;13.346;2023-04-24T01:16:41;99795.00;;;16.10
15845;BMP180;50807;52.436;13.346;2023-04-24T01:17:13;99794.00;;;16.10
15845;BMP180;50807;52.436;13.346;2023-04-24T01:17:44;99787.00;;;16.10
15845;BMP180;50807;52.436;13.346;2023-04-24T01:18:15;99792.00;;;16.10
15845;BMP180;50807;52.436;13.346;2023-04-24T01:18:47;99785.00;;;16.10
15845;BMP180;50807;52.436;13.346;2023-04-24T01:19:19;99791.00;;;16.10
15845;BMP180;50807;52.436;13.346;2023-04-24T01:19:49;99784.00;;;16.10
15845;BMP180;50807;52.436;13.346;2023-04-24T01:20:25;99787.00;;;16.10
15845;BMP180;50807;52.436;13.346;2023-04-24T01:20:59;99786.00;;;16.10
15845;BMP180;50807;52.436;13.346;2023-04-24T01:21:34;99778.00;;;16.10
15845;BMP180;50807;52.436;13.346;2023-04-24T01:22:11;99778.00;;;16.10
15845;BMP180;50807;52.436;13.346;2023-04-24T01:22:42;99791.00;;;16.10
15845;BMP180;50807;52.436;13.346;2023-04-24T01:23:14;99789.00;;;16.10
15845;BMP180;50807;52.436;13.346;2023-04-24T01:23:46;99796.00;;;16.20
15845;BMP180;50807;52.436;13.346;2023-04-24T01:24:16;99791.00;;;16.20
15845;BMP180;50807;52.436;13.346;2023-04-24T01:24:49;99785.00;;;16.20
15845;BMP180;50807;52.436;13.346;2023-04-24T01:25:20;99780.00;;;16.20
15845;BMP180;50807;52.436;13.346;2023-04-24T01:25:51;99784.00;;;16.20
15845;BMP180;50807;52.436;13.346;2023-04-24T01:26:23;99787.00;;;16.20
15845;BMP180;50807;52.436;13.346;2023-04-24T01:26:56;99787.00;;;16.20
15845;BMP180;50807;52.436;13.346;2023-04-24T01:27:27;99787.00;;;16.20
15845;BMP180;50807;52.436;13.346;2023-04-24T01:27:59;99787.00;;;16.20
15845;BMP180;50807;52.436;13.346;2023-04-24T01:28:30;99776.00;;;16.20
15845;BMP180;50807;52.436;13.346;2023-04-24T01:29:01;99778.00;;;16.20
15845;BMP180;50807;52.436;13.346;2023-04-24T01:29:34;99783.00;;;16.20
15845;BMP180;50807;52.436;13.346;2023-04-24T01:30:07;99781.00;;;16.20
15845;BMP180;50807;52.436;13.346;2023-04-24T01:30:38;99785.00;;;16.30
15845;BMP180;50807;52.436;13.346;2023-04-24T01:31:09;99780.00;;;16.30
15845;BMP180;50807;52.436;13.346;2023-04-24T01:31:40;99777.00;;;16.20
15845;BMP180;50807;52.436;13.346;2023-04-24T01:32:12;99780.00;;;16.20
15845;BMP180;50807;52.436;13.346;2023-04-24T01:32:43;99782.00;;;16.20
15845;BMP180;50807;52.436;13.346;2023-04-24T01:33:16;99781.00;;;16.20
15845;BMP180;50807;52.436;13.346;2023-04-24T01:33:47;99781.00;;;16.20
15845;BMP180;50807;52.436;13.346;2023-04-24T01:34:19;99783.00;;;16.20
15845;BMP180;50807;52.436;13.346;2023-04-24T01:34:51;99777.00;;;16.20
15845;BMP180;50807;52.436;13.346;2023-04-24T01:35:22;99783.00;;;16.20
15845;BMP180;50807;52.436;13.346;2023-04-24T01:35:54;99781.00;;;16.20
15845;BMP180;50807;52.436;13.346;2023-04-24T01:36:28;99776.00;;;16.10
15845;BMP180;50807;52.436;13.346;2023-04-24T01:37:01;99779.00;;;16.10
15845;BMP180;50807;52.436;13.346;2023-04-24T01:37:33;99786.00;;;16.10
15845;BMP180;50807;52.436;13.346;2023-04-24T01:38:04;99780.00;;;16.10
15845;BMP180;50807;52.436;13.346;2023-04-24T01:38:36;99779.00;;;16.10
15845;BMP180;50807;52.436;13.346;2023-04-24T01:39:07;99778.00;;;16.20
15845;BMP180;50807;52.436;13.346;2023-04-24T01:39:38;99782.00;;;16.10
15845;BMP180;50807;52.436;13.346;2023-04-24T01:40:10;99778.00;;;16.10
15845;BMP180;50807;52.436;13.346;2023-04-24T01:40:41;99786.00;;;16.10
15845;BMP180;50807;52.436;13.346;2023-04-24T01:41:12;99779.00;;;16.10
15845;BMP180;50807;52.436;13.346;2023-04-24T01:41:44;99782.00;;;16.10
15845;BMP180;50807;52.436;13.346;2023-04-24T01:42:16;99778.00;;;16.10
15845;BMP180;50807;52.436;13.346;2023-04-24T01:42:47;99782.00;;;16.10
15845;BMP180;50807;52.436;13.346;2023-04-24T01:43:19;99781.00;;;16.10
15845;BMP180;50807;52.436;13.346;2023-04-24T01:43:50;99768.00;;;16.10
15845;BMP180;50807;52.436;13.346;2023-04-24T01:44:21;99780.00;;;16.10
15845;BMP180;50807;52.436;13.346;2023-04-24T01:44:54;99776.00;;;16.10
15845;BMP180;50807;52.436;13.346;2023-04-24T01:45:28;99774.00;;;16.10
15845;BMP180;50807;52.436;13.346;2023-04-24T01:45:58;99770.00;;;16.10
15845;BMP180;50807;52.436;13.346;2023-04-24T01:46:30;99773.00;;;16.10
15845;BMP180;50807;52.436;13.346;2023-04-24T01:47:02;99766.00;;;16.10
15845;BMP180;50807;52.436;13.346;2023-04-24T01:47:32;99762.00;;;16.20
15845;BMP180;50807;52.436;13.346;2023-04-24T01:48:04;99768.00;;;16.20
15845;BMP180;50807;52.436;13.346;2023-04-24T01:48:35;99766.00;;;16.10
15845;BMP180;50807;52.436;13.346;2023-04-24T01:49:06;99762.00;;;16.10
15845;BMP180;50807;52.436;13.346;2023-04-24T01:49:38;99765.00;;;16.10
15845;BMP180;50807;52.436;13.346;2023-04-24T01:50:10;99766.00;;;16.10
15845;BMP180;50807;52.436;13.346;2023-04-24T01:50:41;99758.00;;;16.20
15845;BMP180;50807;52.436;13.346;2023-04-24T01:51:12;99762.00;;;16.20
15845;BMP180;50807;52.436;13.346;2023-04-24T01:51:43;99758.00;;;16.20
15845;BMP180;50807;52.436;13.346;2023-04-24T01:52:15;99754.00;;;16.20
15845;BMP180;50807;52.436;13.346;2023-04-24T01:52:48;99761.00;;;16.20
15845;BMP180;50807;52.436;13.346;2023-04-24T01:53:19;99755.00;;;16.20
15845;BMP180;50807;52.436;13.346;2023-04-24T01:53:50;99757.00;;;16.20
15845;BMP180;50807;52.436;13.346;2023-04-24T01:54:21;99751.00;;;16.20
15845;BMP180;50807;52.436;13.346;2023-04-24T01:54:53;99756.00;;;16.20
15845;BMP180;50807;52.436;13.346;2023-04-24T01:55:24;99761.00;;;16.20
15845;BMP180;50807;52.436;13.346;2023-04-24T01:55:54;99762.00;;;16.20
15845;BMP180;50807;52.436;13.346;2023-04-24T01:56:29;99763.00;;;16.20
15845;BMP180;50807;52.436;13.346;2023-04-24T01:57:00;99763.00;;;16.20
15845;BMP180;50807;52.436;13.346;2023-04-24T01:57:32;99765.00;;;16.20
15845;BMP180;50807;52.436;13.346;2023-04-24T01:58:04;99765.00;;;16.20
15845;BMP180;50807;52.436;13.346;2023-04-24T01:58:35;99763.00;;;16.20
15845;BMP180;50807;52.436;13.346;2023-04-24T01:59:09;99767.00;;;16.20
15845;BMP180;50807;52.436;13.346;2023-04-24T01:59:41;99765.00;;;16.20
15845;BMP180;50807;52.436;13.346;2023-04-24T02:00:13;99758.00;;;16.20
15845;BMP180;50807;52.436;13.346;2023-04-24T02:00:43;99752.00;;;16.20
15845;BMP180;50807;52.436;13.346;2023-04-24T02:01:17;99754.00;;;16.20
15845;BMP180;50807;52.436;13.346;2023-04-24T02:01:48;99755.00;;;16.20
15845;BMP180;50807;52.436;13.346;2023-04-24T02:02:19;99752.00;;;16.20
15845;BMP180;50807;52.436;13.346;2023-04-24T02:02:51;99751.00;;;16.20
15845;BMP180;50807;52.436;13.346;2023-04-24T02:03:23;99755.00;;;16.20
15845;BMP180;50807;52.436;13.346;2023-04-24T02:03:54;99758.00;;;16.20
15845;BMP180;50807;52.436;13.346;2023-04-24T02:04:25;99763.00;;;16.20
15845;BMP180;50807;52.436;13.346;2023-04-24T02:04:56;99760.00;;;16.20
15845;BMP180;50807;52.436;13.346;2023-04-24T02:05:27;99761.00;;;16.20
15845;BMP180;50807;52.436;13.346;2023-04-24T02:05:58;99765.00;;;16.10
15845;BMP180;50807;52.436;13.346;2023-04-24T02:06:29;99767.00;;;16.10
15845;BMP180;50807;52.436;13.346;2023-04-24T02:07:01;99756.00;;;16.10
15845;BMP180;50807;52.436;13.346;2023-04-24T02:07:32;99753.00;;;16.10
15845;BMP180;50807;52.436;13.346;2023-04-24T02:08:04;99762.00;;;16.10
15845;BMP180;50807;52.436;13.346;2023-04-24T02:08:36;99750.00;;;16.10
15845;BMP180;50807;52.436;13.346;2023-04-24T02:09:06;99754.00;;;16.10
15845;BMP180;50807;52.436;13.346;2023-04-24T02:09:38;99753.00;;;16.10
15845;BMP180;50807;52.436;13.346;2023-04-24T02:10:10;99751.00;;;16.10
15845;BMP180;50807;52.436;13.346;2023-04-24T02:10:41;99755.00;;;16.10
15845;BMP180;50807;52.436;13.346;2023-04-24T02:11:12;99746.00;;;16.10
15845;BMP180;50807;52.436;13.346;2023-04-24T02:11:42;99744.00;;;16.10
15845;BMP180;50807;52.436;13.346;2023-04-24T02:12:14;99740.00;;;16.10
15845;BMP180;50807;52.436;13.346;2023-04-24T02:12:45;99742.00;;;16.10
15845;BMP180;50807;52.436;13.346;2023-04-24T02:13:16;99733.00;;;16.10
15845;BMP180;50807;52.436;13.346;2023-04-24T02:13:48;99736.00;;;16.10
15845;BMP180;50807;52.436;13.346;2023-04-24T02:14:18;99740.00;;;16.20
15845;BMP180;50807;52.436;13.346;2023-04-24T02:14:49;99740.00;;;16.20
15845;BMP180;50807;52.436;13.346;2023-04-24T02:15:21;99747.00;;;16.20
15845;BMP180;50807;52.436;13.346;2023-04-24T02:15:51;99745.00;;;16.20
15845;BMP180;50807;52.436;13.346;2023-04-24T02:16:22;99744.00;;;16.20
15845;BMP180;50807;52.436;13.346;2023-04-24T02:16:53;99737.00;;;16.20
15845;BMP180;50807;52.436;13.346;2023-04-24T02:17:25;99746.00;;;16.20
15845;BMP180;50807;52.436;13.346;2023-04-24T02:17:56;99744.00;;;16.20
15845;BMP180;50807;52.436;13.346;2023-04-24T02:18:27;99749.00;;;16.20
15845;BMP180;50807;52.436;13.346;2023-04-24T02:18:58;99746.00;;;16.20
15845;BMP180;50807;52.436;13.346;2023-04-24T02:19:29;99738.00;;;16.20
15845;BMP180;50807;52.436;13.346;2023-04-24T02:20:00;99740.00;;;16.20
15845;BMP180;50807;52.436;13.346;2023-04-24T02:20:33;99736.00;;;16.20
15845;BMP180;50807;52.436;13.346;2023-04-24T02:21:05;99740.00;;;16.20
15845;BMP180;50807;52.436;13.346;2023-04-24T02:21:36;99740.00;;;16.20
15845;BMP180;50807;52.436;13.346;2023-04-24T02:22:08;99739.00;;;16.20
15845;BMP180;50807;52.436;13.346;2023-04-24T02:22:39;99733.00;;;16.20
15845;BMP180;50807;52.436;13.346;2023-04-24T02:23:11;99742.00;;;16.20
15845;BMP180;50807;52.436;13.346;2023-04-24T02:23:43;99737.00;;;16.20
15845;BMP180;50807;52.436;13.346;2023-04-24T02:24:14;99735.00;;;16.20
15845;BMP180;50807;52.436;13.346;2023-04-24T02:24:46;99736.00;;;16.20
15845;BMP180;50807;52.436;13.346;2023-04-24T02:25:17;99738.00;;;16.20
15845;BMP180;50807;52.436;13.346;2023-04-24T02:25:47;99741.00;;;16.20
15845;BMP180;50807;52.436;13.346;2023-04-24T02:26:19;99743.00;;;16.20
15845;BMP180;50807;52.436;13.346;2023-04-24T02:26:50;99746.00;;;16.20
15845;BMP180;50807;52.436;13.346;2023-04-24T02:27:20;99742.00;;;16.20
15845;BMP180;50807;52.436;13.346;2023-04-24T02:27:52;99746.00;;;16.20
15845;BMP180;50807;52.436;13.346;2023-04-24T02:28:23;99739.00;;;16.20
15845;BMP180;50807;52.436;13.346;2023-04-24T02:28:54;99745.00;;;16.20
15845;BMP180;50807;52.436;13.346;2023-04-24T02:29:24;99744.00;;;16.20
15845;BMP180;50807;52.436;13.346;2023-04-24T02:29:56;99743.00;;;16.20
15845;BMP180;50807;52.436;13.346;2023-04-24T02:30:27;99741.00;;;16.20
15845;BMP180;50807;52.436;13.346;2023-04-24T02:30:58;99746.00;;;16.20
15845;BMP180;50807;52.436;13.346;2023-04-24T02:31:29;99747.00;;;16.20
15845;BMP180;50807;52.436;13.346;2023-04-24T02:32:00;99745.00;;;16.20
15845;BMP180;50807;52.436;13.346;2023-04-24T02:32:31;99742.00;;;16.20
15845;BMP180;50807;52.436;13.346;2023-04-24T02:33:02;99741.00;;;16.20
15845;BMP180;50807;52.436;13.346;2023-04-24T02:33:33;99747.00;;;16.20
15845;BMP180;50807;52.436;13.346;2023-04-24T02:34:05;99737.00;;;16.20
15845;BMP180;50807;52.436;13.346;2023-04-24T02:34:36;99747.00;;;16.20
15845;BMP180;50807;52.436;13.346;2023-04-24T02:35:08;99745.00;;;16.20
15845;BMP180;50807;52.436;13.346;2023-04-24T02:35:40;99748.00;;;16.20
15845;BMP180;50807;52.436;13.346;2023-04-24T02:36:10;99746.00;;;16.20
15845;BMP180;50807;52.436;13.346;2023-04-24T02:36:41;99752.00;;;16.20
15845;BMP180;50807;52.436;13.346;2023-04-24T02:37:13;99742.00;;;16.20
15845;BMP180;50807;52.436;13.346;2023-04-24T02:37:44;99740.00;;;16.20
15845;BMP180;50807;52.436;13.346;2023-04-24T02:38:16;99749.00;;;16.20
15845;BMP180;50807;52.436;13.346;2023-04-24T02:38:48;99745.00;;;16.20
15845;BMP180;50807;52.436;13.346;2023-04-24T02:39:18;99747.00;;;16.20
15845;BMP180;50807;52.436;13.346;2023-04-24T02:39:49;99743.00;;;16.20
15845;BMP180;50807;52.436;13.346;2023-04-24T02:40:21;99746.00;;;16.20
15845;BMP180;50807;52.436;13.346;2023-04-24T02:40:51;99746.00;;;16.20
15845;BMP180;50807;52.436;13.346;2023-04-24T02:41:22;99748.00;;;16.20
15845;BMP180;50807;52.436;13.346;2023-04-24T02:41:53;99748.00;;;16.20
15845;BMP180;50807;52.436;13.346;2023-04-24T02:42:25;99749.00;;;16.20
15845;BMP180;50807;52.436;13.346;2023-04-24T02:42:56;99737.00;;;16.20
15845;BMP180;50807;52.436;13.346;2023-04-24T02:43:26;99747.00;;;16.20
15845;BMP180;50807;52.436;13.346;2023-04-24T02:43:57;99747.00;;;16.20
15845;BMP180;50807;52.436;13.346;2023-04-24T02:44:29;99748.00;;;16.20
15845;BMP180;50807;52.436;13.346;2023-04-24T02:44:59;99749.00;;;16.20
15845;BMP180;50807;52.436;13.346;2023-04-24T02:45:30;99752.00;;;16.20
15845;BMP180;50807;52.436;13.346;2023-04-24T02:46:01;99742.00;;;16.20
15845;BMP180;50807;52.436;13.346;2023-04-24T02:46:33;99740.00;;;16.20
15845;BMP180;50807;52.436;13.346;2023-04-24T02:47:04;99743.00;;;16.30
15845;BMP180;50807;52.436;13.346;2023-04-24T02:47:34;99740.00;;;16.20
15845;BMP180;50807;52.436;13.346;2023-04-24T02:48:06;99745.00;;;16.20
15845;BMP180;50807;52.436;13.346;2023-04-24T02:48:37;99744.00;;;16.20
15845;BMP180;50807;52.436;13.346;2023-04-24T02:49:08;99738.00;;;16.20
15845;BMP180;50807;52.436;13.346;2023-04-24T02:49:39;99745.00;;;16.20
15845;BMP180;50807;52.436;13.346;2023-04-24T02:50:10;99743.00;;;16.20
15845;BMP180;50807;52.436;13.346;2023-04-24T02:50:41;99747.00;;;16.20
15845;BMP180;50807;52.436;13.346;2023-04-24T02:51:12;99740.00;;;16.20
15845;BMP180;50807;52.436;13.346;2023-04-24T02:51:43;99750.00;;;16.20
15845;BMP180;50807;52.436;13.346;2023-04-24T02:52:14;99741.00;;;16.20
15845;BMP180;50807;52.436;13.346;2023-04-24T02:52:47;99741.00;;;16.20
15845;BMP180;50807;52.436;13.346;2023-04-24T02:53:19;99737.00;;;16.20
15845;BMP180;50807;52.436;13.346;2023-04-24T02:53:50;99742.00;;;16.30
15845;BMP180;50807;52.436;13.346;2023-04-24T02:54:21;99736.00;;;16.30
15845;BMP180;50807;52.436;13.346;2023-04-24T02:54:52;99736.00;;;16.30
15845;BMP180;50807;52.436;13.346;2023-04-24T02:55:24;99740.00;;;16.30
15845;BMP180;50807;52.436;13.346;2023-04-24T02:55:55;99732.00;;;16.30
15845;BMP180;50807;52.436;13.346;2023-04-24T02:56:26;99737.00;;;16.30
15845;BMP180;50807;52.436;13.346;2023-04-24T02:56:57;99732.00;;;16.30
15845;BMP180;50807;52.436;13.346;2023-04-24T02:57:29;99736.00;;;16.30
15845;BMP180;50807;52.436;13.346;2023-04-24T02:57:59;99730.00;;;16.30
15845;BMP180;50807;52.436;13.346;2023-04-24T02:58:30;99736.00;;;16.30
15845;BMP180;50807;52.436;13.346;2023-04-24T02:59:02;99731.00;;;16.30